createdAt,value
2023-02-02T00:01:01.314Z,100110.91
2023-02-02T00:03:27.873Z,100122.88
2023-02-02T00:05:54.830Z,100113.50
2023-02-02T00:08:22.214Z,100117.78
2023-02-02T00:10:50.568Z,100119.69
2023-02-02T00:13:17.652Z,100119.59
2023-02-02T00:15:44.408Z,100118.63
2023-02-02T00:18:11.027Z,100116.59
2023-02-02T00:20:37.838Z,100122.91
2023-02-02T00:23:04.483Z,100128.22
2023-02-02T00:25:33.288Z,100132.50
2023-02-02T00:27:59.923Z,100101.28
2023-02-02T00:30:26.585Z,100107.56
2023-02-02T00:32:53.332Z,100101.94
2023-02-02T00:35:20.955Z,100094.78
2023-02-02T00:37:47.559Z,100081.56
2023-02-02T00:40:14.454Z,100060.13
2023-02-02T00:42:41.071Z,100053.84
2023-02-02T00:45:17.302Z,100059.41
2023-02-02T00:47:49.195Z,100065.91
2023-02-02T00:50:19.835Z,100078.81
2023-02-02T00:52:48.171Z,100087.03
2023-02-02T00:55:15.727Z,100082.00
2023-02-02T00:57:44.373Z,100063.47
2023-02-02T01:00:16.799Z,100098.25
2023-02-02T01:02:43.818Z,100059.84
2023-02-02T01:05:13.784Z,100074.44
2023-02-02T01:07:40.720Z,100073.16
2023-02-02T01:10:10.871Z,100105.06
2023-02-02T01:12:37.453Z,100085.22
2023-02-02T01:15:04.566Z,100083.50
2023-02-02T01:17:31.139Z,100081.34
2023-02-02T01:19:57.706Z,100077.41
2023-02-02T01:22:24.279Z,100087.84
2023-02-02T01:24:50.958Z,100100.69
2023-02-02T01:27:17.990Z,100108.22
2023-02-02T01:29:44.977Z,100103.31
2023-02-02T01:32:11.874Z,100097.91
2023-02-02T01:34:41.880Z,100102.00
2023-02-02T01:37:09.322Z,100113.06
2023-02-02T01:39:36.455Z,100126.56
2023-02-02T01:42:03.878Z,100117.09
2023-02-02T01:45:01.000Z,100103.00
2023-02-02T01:47:41.810Z,100105.97
2023-02-02T01:50:11.591Z,100088.47
2023-02-02T01:52:38.984Z,100088.59
2023-02-02T01:55:12.781Z,100083.28
2023-02-02T01:57:45.359Z,100089.75
2023-02-02T02:00:15.209Z,100069.41
2023-02-02T02:02:46.076Z,100083.56
2023-02-02T02:05:18.708Z,100072.72
2023-02-02T02:07:48.366Z,100065.78
2023-02-02T02:10:17.463Z,100068.47
2023-02-02T02:12:46.747Z,100073.69
2023-02-02T02:15:31.908Z,100069.00
2023-02-02T02:18:29.506Z,100058.88
2023-02-02T02:21:48.905Z,100061.63
2023-02-02T02:25:13.244Z,100060.88
2023-02-02T02:28:04.255Z,100051.19
2023-02-02T02:30:56.184Z,100044.53
2023-02-02T02:33:45.775Z,100089.88
2023-02-02T02:36:35.007Z,100081.13
2023-02-02T02:39:18.676Z,100094.34
2023-02-02T02:41:50.092Z,100098.81
2023-02-02T02:44:19.491Z,100100.06
2023-02-02T02:46:48.307Z,100099.50
2023-02-02T02:49:15.145Z,100091.59
2023-02-02T02:51:51.276Z,100089.06
2023-02-02T02:54:22.049Z,100084.00
2023-02-02T02:57:07.326Z,100107.09
2023-02-02T02:59:57.192Z,100103.41
2023-02-02T03:03:08.788Z,100097.69
2023-02-02T03:06:05.006Z,100097.03
2023-02-02T03:08:57.215Z,100087.25
2023-02-02T03:11:23.984Z,100106.84
2023-02-02T03:13:50.576Z,100116.78
2023-02-02T03:16:17.853Z,100101.59
2023-02-02T03:18:44.659Z,100098.94
2023-02-02T03:21:11.595Z,100105.31
2023-02-02T03:23:38.862Z,100094.66
2023-02-02T03:26:06.286Z,100109.66
2023-02-02T03:28:33.300Z,100113.38
2023-02-02T03:31:01.859Z,100116.78
2023-02-02T03:33:29.980Z,100114.91
2023-02-02T03:35:56.557Z,100111.66
2023-02-02T03:38:23.062Z,100118.69
2023-02-02T03:40:51.061Z,100100.94
2023-02-02T03:43:24.418Z,100103.13
2023-02-02T03:45:57.905Z,100113.75
2023-02-02T03:48:24.825Z,100121.94
2023-02-02T03:50:51.408Z,100115.84
2023-02-02T03:53:17.991Z,100130.09
2023-02-02T03:55:44.539Z,100113.56
2023-02-02T03:58:11.132Z,100109.28
2023-02-02T04:00:37.872Z,100114.03
2023-02-02T04:03:04.500Z,100106.34
2023-02-02T04:05:31.085Z,100115.56
2023-02-02T04:07:57.650Z,100092.19
2023-02-02T04:10:24.305Z,100082.59
2023-02-02T04:12:51.070Z,100083.53
2023-02-02T04:15:17.716Z,100078.31
2023-02-02T04:17:44.273Z,100075.00
2023-02-02T04:20:11.594Z,100069.38
2023-02-02T04:22:38.213Z,100070.03
2023-02-02T04:25:05.059Z,100065.69
2023-02-02T04:27:33.989Z,100082.75
2023-02-02T04:30:00.861Z,100082.94
2023-02-02T04:32:27.436Z,100078.75
2023-02-02T04:34:53.984Z,100085.78
2023-02-02T04:37:20.536Z,100081.41
2023-02-02T04:39:48.877Z,100072.94
2023-02-02T04:42:15.448Z,100091.13
2023-02-02T04:44:44.025Z,100074.19
2023-02-02T04:47:10.599Z,100076.16
2023-02-02T04:49:37.875Z,100090.63
2023-02-02T04:52:04.690Z,100082.28
2023-02-02T04:54:31.379Z,100076.69
2023-02-02T04:56:58.121Z,100087.31
2023-02-02T04:59:24.961Z,100084.94
2023-02-02T05:01:51.494Z,100080.38
2023-02-02T05:04:18.101Z,100074.31
2023-02-02T05:06:44.696Z,100079.63
2023-02-02T05:09:11.440Z,100078.16
2023-02-02T05:11:39.169Z,100072.94
2023-02-02T05:14:05.960Z,100078.53
2023-02-02T05:16:32.561Z,100078.59
2023-02-02T05:18:59.559Z,100084.03
2023-02-02T05:21:26.212Z,100107.91
2023-02-02T05:23:52.797Z,100114.41
2023-02-02T05:26:26.711Z,100111.25
2023-02-02T05:28:53.805Z,100124.69
2023-02-02T05:31:21.173Z,100126.47
2023-02-02T05:33:47.848Z,100148.66
2023-02-02T05:36:14.393Z,100147.03
2023-02-02T05:38:40.974Z,100136.41
2023-02-02T05:41:07.622Z,100142.16
2023-02-02T05:43:34.547Z,100144.03
2023-02-02T05:46:01.676Z,100136.88
2023-02-02T05:48:28.580Z,100158.91
2023-02-02T05:51:15.524Z,100155.44
2023-02-02T05:53:42.156Z,100165.25
2023-02-02T05:56:08.811Z,100190.00
2023-02-02T05:58:35.403Z,100174.84
2023-02-02T06:01:03.382Z,100183.66
2023-02-02T06:03:29.984Z,100176.97
2023-02-02T06:05:56.593Z,100181.69
2023-02-02T06:08:23.189Z,100174.84
2023-02-02T06:10:49.785Z,100195.28
2023-02-02T06:13:16.395Z,100176.63
2023-02-02T06:15:43.313Z,100178.44
2023-02-02T06:18:10.403Z,100163.88
2023-02-02T06:20:37.066Z,100172.59
2023-02-02T06:23:04.114Z,100172.38
2023-02-02T06:25:30.699Z,100164.22
2023-02-02T06:27:58.294Z,100160.75
2023-02-02T06:30:25.136Z,100175.09
2023-02-02T06:32:51.725Z,100173.13
2023-02-02T06:35:18.765Z,100161.56
2023-02-02T06:37:45.485Z,100148.75
2023-02-02T06:40:13.769Z,100164.41
2023-02-02T06:42:40.985Z,100159.09
2023-02-02T06:45:08.240Z,100153.50
2023-02-02T06:47:35.092Z,100160.22
2023-02-02T06:50:01.729Z,100166.97
2023-02-02T06:52:28.508Z,100154.44
2023-02-02T06:54:55.311Z,100153.41
2023-02-02T06:57:22.021Z,100158.56
2023-02-02T06:59:48.659Z,100157.78
2023-02-02T07:02:15.410Z,100175.44
2023-02-02T07:04:42.085Z,100174.31
2023-02-02T07:07:08.623Z,100178.78
2023-02-02T07:09:35.632Z,100184.84
2023-02-02T07:12:02.232Z,100172.84
2023-02-02T07:14:28.784Z,100186.88
2023-02-02T07:16:55.326Z,100178.66
2023-02-02T07:19:21.929Z,100181.03
2023-02-02T07:21:48.573Z,100175.38
2023-02-02T07:24:15.139Z,100186.97
2023-02-02T07:26:41.759Z,100195.47
2023-02-02T07:29:11.980Z,100203.69
2023-02-02T07:31:38.554Z,100204.38
2023-02-02T07:34:06.562Z,100216.72
2023-02-02T07:36:33.392Z,100237.13
2023-02-02T07:39:02.358Z,100228.97
2023-02-02T07:41:28.920Z,100235.47
2023-02-02T07:43:55.482Z,100242.13
2023-02-02T07:46:22.389Z,100246.25
2023-02-02T07:48:49.047Z,100253.41
2023-02-02T07:51:18.192Z,100257.34
2023-02-02T07:53:50.419Z,100269.00
2023-02-02T07:56:22.741Z,100254.88
2023-02-02T07:58:52.467Z,100255.94
2023-02-02T08:01:20.683Z,100256.81
2023-02-02T08:03:47.322Z,100262.94
2023-02-02T08:06:28.846Z,100254.84
2023-02-02T08:08:55.699Z,100252.84
2023-02-02T08:11:23.584Z,100246.00
2023-02-02T08:14:00.993Z,100257.03
2023-02-02T08:16:29.652Z,100254.84
2023-02-02T08:18:57.477Z,100248.28
2023-02-02T08:21:24.873Z,100246.63
2023-02-02T08:23:53.003Z,100237.66
2023-02-02T08:26:22.131Z,100251.72
2023-02-02T08:28:52.438Z,100253.56
2023-02-02T08:31:22.300Z,100245.31
2023-02-02T08:33:49.951Z,100252.59
2023-02-02T08:36:21.837Z,100250.44
2023-02-02T08:38:48.955Z,100250.38
2023-02-02T08:41:24.505Z,100245.19
2023-02-02T08:43:51.572Z,100225.47
2023-02-02T08:46:20.512Z,100245.47
2023-02-02T08:48:48.151Z,100233.09
2023-02-02T08:51:18.460Z,100239.72
2023-02-02T08:53:46.463Z,100234.56
2023-02-02T08:56:15.287Z,100229.47
2023-02-02T08:58:50.585Z,100241.38
2023-02-02T09:01:20.517Z,100267.78
2023-02-02T09:03:47.686Z,100252.84
2023-02-02T09:06:17.459Z,100249.44
2023-02-02T09:08:44.998Z,100242.50
2023-02-02T09:11:14.702Z,100245.91
2023-02-02T09:13:42.143Z,100247.84
2023-02-02T09:16:11.210Z,100241.53
2023-02-02T09:18:38.149Z,100253.81
2023-02-02T09:21:07.559Z,100242.09
2023-02-02T09:23:36.263Z,100253.31
2023-02-02T09:26:29.284Z,100249.03
2023-02-02T09:29:02.933Z,100249.97
2023-02-02T09:31:33.425Z,100253.41
2023-02-02T09:34:05.067Z,100269.84
2023-02-02T09:36:32.140Z,100256.13
2023-02-02T09:38:59.112Z,100271.34
2023-02-02T09:41:37.566Z,100248.19
2023-02-02T09:44:22.876Z,100250.91
2023-02-02T09:46:58.563Z,100245.13
2023-02-02T09:49:40.268Z,100250.41
2023-02-02T09:52:14.823Z,100252.34
2023-02-02T09:54:45.233Z,100250.97
2023-02-02T09:57:41.664Z,100262.22
2023-02-02T10:00:19.370Z,100250.00
2023-02-02T10:02:49.983Z,100250.41
2023-02-02T10:05:27.154Z,100253.81
2023-02-02T10:08:01.628Z,100269.81
2023-02-02T10:10:40.407Z,100256.53
2023-02-02T10:13:16.159Z,100264.06
2023-02-02T10:15:54.761Z,100268.72
2023-02-02T10:18:33.331Z,100264.22
2023-02-02T10:21:01.858Z,100255.25
2023-02-02T10:23:35.812Z,100254.88
2023-02-02T10:26:05.123Z,100261.59
2023-02-02T10:28:42.315Z,100279.38
2023-02-02T10:31:42.900Z,100255.84
2023-02-02T10:34:55.556Z,100240.16
2023-02-02T10:37:38.044Z,100237.88
2023-02-02T10:40:22.884Z,100232.03
2023-02-02T10:43:26.664Z,100216.88
2023-02-02T10:45:54.543Z,100220.53
2023-02-02T10:48:30.402Z,100242.50
2023-02-02T10:51:00.467Z,100248.22
2023-02-02T10:53:29.944Z,100242.00
2023-02-02T10:55:59.931Z,100237.63
2023-02-02T10:58:32.281Z,100232.41
2023-02-02T11:01:01.365Z,100252.28
2023-02-02T11:03:31.140Z,100259.53
2023-02-02T11:06:20.201Z,100258.84
2023-02-02T11:08:59.549Z,100267.31
2023-02-02T11:11:40.039Z,100271.72
2023-02-02T11:14:09.836Z,100262.81
2023-02-02T11:16:43.663Z,100265.84
2023-02-02T11:19:22.787Z,100253.38
2023-02-02T11:21:56.472Z,100288.56
2023-02-02T11:24:31.535Z,100273.53
2023-02-02T11:27:24.044Z,100279.88
2023-02-02T11:29:56.009Z,100275.66
2023-02-02T11:32:28.014Z,100264.38
2023-02-02T11:35:06.679Z,100286.03
2023-02-02T11:37:37.996Z,100281.41
2023-02-02T11:40:24.329Z,100286.56
2023-02-02T11:42:52.929Z,100302.66
2023-02-02T11:45:29.735Z,100301.28
2023-02-02T11:48:02.820Z,100307.59
2023-02-02T11:50:29.698Z,100312.31
2023-02-02T11:52:56.681Z,100313.38
2023-02-02T11:55:29.486Z,100316.72
2023-02-02T11:58:42.356Z,100311.72
2023-02-02T12:01:27.246Z,100311.53
2023-02-02T12:03:58.751Z,100311.88
2023-02-02T12:06:32.347Z,100317.59
2023-02-02T12:09:03.826Z,100309.09
2023-02-02T12:11:54.709Z,100303.69
2023-02-02T12:14:29.394Z,100295.09
2023-02-02T12:17:24.980Z,100295.97
2023-02-02T12:20:03.464Z,100305.41
2023-02-02T12:22:54.736Z,100293.84
2023-02-02T12:25:54.485Z,100302.50
2023-02-02T12:28:49.068Z,100294.78
2023-02-02T12:31:21.226Z,100295.22
2023-02-02T12:34:26.087Z,100307.66
2023-02-02T12:37:07.506Z,100297.91
2023-02-02T12:39:34.672Z,100302.41
2023-02-02T12:42:25.691Z,100306.25
2023-02-02T12:45:00.029Z,100305.84
2023-02-02T12:47:48.249Z,100295.06
2023-02-02T12:50:15.576Z,100300.31
2023-02-02T12:52:50.892Z,100303.19
2023-02-02T12:55:36.105Z,100302.75
2023-02-02T12:58:36.811Z,100293.75
2023-02-02T13:01:38.833Z,100294.41
2023-02-02T13:04:22.630Z,100296.66
2023-02-02T13:06:56.432Z,100304.25
2023-02-02T13:09:36.613Z,100302.13
2023-02-02T13:12:09.272Z,100311.53
2023-02-02T13:14:37.952Z,100315.03
2023-02-02T13:17:15.884Z,100312.25
2023-02-02T13:19:46.927Z,100315.56
2023-02-02T13:22:37.682Z,100314.72
2023-02-02T13:25:08.733Z,100312.16
2023-02-02T13:27:36.660Z,100307.25
2023-02-02T13:30:28.711Z,100307.66
2023-02-02T13:32:59.940Z,100314.41
2023-02-02T13:35:42.707Z,100320.91
2023-02-02T13:38:22.898Z,100314.50
2023-02-02T13:40:51.776Z,100310.00
2023-02-02T13:44:01.104Z,100334.59
2023-02-02T13:46:49.546Z,100317.72
2023-02-02T13:49:25.983Z,100315.13
2023-02-02T13:51:55.755Z,100321.78
2023-02-02T13:54:34.199Z,100324.75
2023-02-02T13:57:06.766Z,100323.78
2023-02-02T13:59:54.762Z,100311.78
2023-02-02T14:02:31.163Z,100313.66
2023-02-02T14:05:00.956Z,100323.91
2023-02-02T14:07:40.759Z,100315.91
2023-02-02T14:10:28.161Z,100308.50
2023-02-02T14:12:55.991Z,100309.31
2023-02-02T14:15:44.431Z,100323.44
2023-02-02T14:18:11.120Z,100325.94
2023-02-02T14:20:47.184Z,100322.75
2023-02-02T14:23:51.241Z,100331.03
2023-02-02T14:26:45.638Z,100317.13
2023-02-02T14:29:33.396Z,100331.38
2023-02-02T14:32:06.746Z,100323.06
2023-02-02T14:34:41.231Z,100326.72
2023-02-02T14:37:23.016Z,100327.09
2023-02-02T14:39:55.580Z,100317.88
2023-02-02T14:42:59.081Z,100328.44
2023-02-02T14:45:32.271Z,100337.00
2023-02-02T14:48:20.585Z,100332.84
2023-02-02T14:50:56.792Z,100329.50
2023-02-02T14:53:33.804Z,100328.50
2023-02-02T14:56:04.885Z,100338.72
2023-02-02T14:58:37.375Z,100345.16
2023-02-02T15:01:25.806Z,100346.59
2023-02-02T15:04:01.091Z,100351.59
2023-02-02T15:06:32.470Z,100355.53
2023-02-02T15:09:22.482Z,100362.13
2023-02-02T15:12:10.849Z,100371.41
2023-02-02T15:15:11.490Z,100371.56
2023-02-02T15:17:41.309Z,100365.16
2023-02-02T15:20:26.664Z,100373.91
2023-02-02T15:22:56.868Z,100382.78
2023-02-02T15:25:45.866Z,100372.94
2023-02-02T15:28:21.445Z,100377.13
2023-02-02T15:30:54.457Z,100382.25
2023-02-02T15:33:32.549Z,100384.97
2023-02-02T15:36:10.206Z,100399.25
2023-02-02T15:38:40.042Z,100398.56
2023-02-02T15:41:34.190Z,100407.91
2023-02-02T15:44:02.406Z,100400.63
2023-02-02T15:46:34.364Z,100412.00
2023-02-02T15:49:33.167Z,100400.31
2023-02-02T15:52:10.114Z,100414.72
2023-02-02T15:54:38.203Z,100417.56
2023-02-02T15:57:27.485Z,100417.88
2023-02-02T15:59:54.494Z,100433.97
2023-02-02T16:02:40.982Z,100424.84
2023-02-02T16:05:36.735Z,100429.22
2023-02-02T16:08:08.349Z,100433.00
2023-02-02T16:10:36.178Z,100432.34
2023-02-02T16:13:03.517Z,100437.38
2023-02-02T16:15:32.302Z,100438.91
2023-02-02T16:18:05.514Z,100446.50
2023-02-02T16:20:35.147Z,100442.69
2023-02-02T16:23:04.862Z,100445.34
2023-02-02T16:25:37.072Z,100454.38
2023-02-02T16:28:04.455Z,100459.13
2023-02-02T16:30:35.642Z,100456.47
2023-02-02T16:33:34.133Z,100465.03
2023-02-02T16:36:01.318Z,100446.41
2023-02-02T16:38:33.977Z,100457.31
2023-02-02T16:41:26.046Z,100451.31
2023-02-02T16:43:52.747Z,100468.69
2023-02-02T16:46:45.737Z,100476.09
2023-02-02T16:49:23.048Z,100485.09
2023-02-02T16:52:13.346Z,100494.22
2023-02-02T16:54:45.410Z,100505.13
2023-02-02T16:57:23.047Z,100497.06
2023-02-02T16:59:56.440Z,100501.44
2023-02-02T17:02:31.633Z,100510.09
2023-02-02T17:05:19.584Z,100519.81
2023-02-02T17:07:49.951Z,100509.25
2023-02-02T17:10:16.481Z,100515.00
2023-02-02T17:12:44.673Z,100518.63
2023-02-02T17:15:17.328Z,100521.22
2023-02-02T17:17:48.877Z,100529.34
2023-02-02T17:20:17.112Z,100519.66
2023-02-02T17:22:47.559Z,100522.59
2023-02-02T17:25:16.987Z,100543.69
2023-02-02T17:27:44.528Z,100526.97
2023-02-02T17:30:16.075Z,100533.03
2023-02-02T17:32:42.619Z,100540.34
2023-02-02T17:35:17.020Z,100553.38
2023-02-02T17:37:43.645Z,100551.31
2023-02-02T17:40:18.371Z,100554.06
2023-02-02T17:42:45.742Z,100566.34
2023-02-02T17:45:21.471Z,100569.13
2023-02-02T17:47:48.102Z,100576.22
2023-02-02T17:50:14.941Z,100573.66
2023-02-02T17:52:41.497Z,100575.53
2023-02-02T17:55:24.169Z,100578.47
2023-02-02T17:57:52.268Z,100590.16
2023-02-02T18:00:22.511Z,100588.44
2023-02-02T18:02:51.276Z,100595.53
2023-02-02T18:05:18.255Z,100597.25
2023-02-02T18:07:45.044Z,100592.88
2023-02-02T18:10:13.730Z,100592.00
2023-02-02T18:12:42.292Z,100594.00
2023-02-02T18:15:14.616Z,100596.91
2023-02-02T18:17:41.680Z,100599.66
2023-02-02T18:20:12.261Z,100598.88
2023-02-02T18:22:38.833Z,100593.56
2023-02-02T18:25:06.154Z,100596.31
2023-02-02T18:27:32.729Z,100605.38
2023-02-02T18:29:59.313Z,100600.41
2023-02-02T18:32:26.331Z,100609.41
2023-02-02T18:34:55.845Z,100601.53
2023-02-02T18:37:24.113Z,100602.22
2023-02-02T18:39:51.066Z,100611.22
2023-02-02T18:42:17.647Z,100605.13
2023-02-02T18:44:44.936Z,100606.84
2023-02-02T18:47:11.474Z,100612.25
2023-02-02T18:49:38.026Z,100626.38
2023-02-02T18:52:04.703Z,100620.31
2023-02-02T18:54:32.523Z,100619.28
2023-02-02T18:56:59.079Z,100635.31
2023-02-02T18:59:25.654Z,100624.53
2023-02-02T19:01:52.323Z,100623.59
2023-02-02T19:04:18.877Z,100625.56
2023-02-02T19:07:03.694Z,100610.69
2023-02-02T19:09:30.290Z,100613.00
2023-02-02T19:11:57.196Z,100619.72
2023-02-02T19:14:28.804Z,100610.81
2023-02-02T19:16:59.916Z,100619.50
2023-02-02T19:19:30.359Z,100635.44
2023-02-02T19:21:58.611Z,100641.63
2023-02-02T19:24:27.674Z,100647.81
2023-02-02T19:26:54.419Z,100661.25
2023-02-02T19:29:25.466Z,100650.94
2023-02-02T19:32:09.428Z,100651.91
2023-02-02T19:34:36.053Z,100654.19
2023-02-02T19:37:22.219Z,100660.47
2023-02-02T19:39:48.877Z,100656.16
2023-02-02T19:42:15.629Z,100657.94
2023-02-02T19:44:42.391Z,100660.78
2023-02-02T19:47:21.400Z,100656.56
2023-02-02T19:49:48.118Z,100655.53
2023-02-02T19:52:22.145Z,100652.19
2023-02-02T19:54:49.673Z,100655.69
2023-02-02T19:57:41.921Z,100662.91
2023-02-02T20:00:29.937Z,100683.63
2023-02-02T20:03:09.670Z,100695.38
2023-02-02T20:05:39.618Z,100681.81
2023-02-02T20:08:31.499Z,100686.44
2023-02-02T20:11:00.714Z,100691.38
2023-02-02T20:13:45.551Z,100682.75
2023-02-02T20:16:20.110Z,100697.00
2023-02-02T20:18:52.061Z,100688.31
2023-02-02T20:21:36.681Z,100699.16
2023-02-02T20:24:04.020Z,100701.69
2023-02-02T20:26:37.612Z,100699.88
2023-02-02T20:29:25.634Z,100710.75
2023-02-02T20:31:54.433Z,100728.66
2023-02-02T20:34:23.950Z,100724.13
2023-02-02T20:36:51.987Z,100725.00
2023-02-02T20:39:26.967Z,100735.56
2023-02-02T20:41:55.045Z,100723.81
2023-02-02T20:44:21.645Z,100734.44
2023-02-02T20:46:48.294Z,100740.06
2023-02-02T20:49:15.165Z,100747.28
2023-02-02T20:51:41.976Z,100750.94
2023-02-02T20:54:10.238Z,100762.03
2023-02-02T20:56:37.176Z,100766.03
2023-02-02T20:59:06.979Z,100777.75
2023-02-02T21:01:35.016Z,100775.09
2023-02-02T21:04:01.662Z,100783.22
2023-02-02T21:06:28.853Z,100783.22
2023-02-02T21:08:55.480Z,100784.09
2023-02-02T21:11:22.291Z,100786.97
2023-02-02T21:13:50.189Z,100796.97
2023-02-02T21:16:16.876Z,100802.66
2023-02-02T21:18:47.267Z,100800.22
2023-02-02T21:21:15.871Z,100800.22
2023-02-02T21:23:47.396Z,100796.75
2023-02-02T21:26:22.367Z,100795.03
2023-02-02T21:28:49.831Z,100791.44
2023-02-02T21:31:18.241Z,100793.03
2023-02-02T21:33:46.063Z,100788.41
2023-02-02T21:36:28.626Z,100786.47
2023-02-02T21:39:19.280Z,100779.22
2023-02-02T21:41:45.826Z,100783.59
2023-02-02T21:44:17.536Z,100785.22
2023-02-02T21:46:46.016Z,100797.34
2023-02-02T21:49:37.112Z,100812.22
2023-02-02T21:52:14.054Z,100808.75
2023-02-02T21:54:41.014Z,100806.88
2023-02-02T21:57:18.659Z,100809.81
2023-02-02T21:59:46.825Z,100810.97
2023-02-02T22:02:35.297Z,100821.66
2023-02-02T22:05:02.452Z,100819.59
2023-02-02T22:07:31.067Z,100829.06
2023-02-02T22:09:57.636Z,100821.78
2023-02-02T22:12:25.485Z,100824.56
2023-02-02T22:14:56.985Z,100823.69
2023-02-02T22:17:31.908Z,100828.63
2023-02-02T22:20:32.006Z,100830.44
2023-02-02T22:23:01.415Z,100841.16
2023-02-02T22:25:33.629Z,100840.97
2023-02-02T22:28:03.749Z,100840.91
2023-02-02T22:30:39.915Z,100838.63
2023-02-02T22:33:08.855Z,100846.88
2023-02-02T22:35:35.988Z,100850.13
2023-02-02T22:38:03.579Z,100853.28
2023-02-02T22:40:30.812Z,100848.38
2023-02-02T22:42:59.789Z,100851.31
2023-02-02T22:45:26.728Z,100860.13
2023-02-02T22:47:53.595Z,100872.41
2023-02-02T22:50:40.056Z,100870.91
2023-02-02T22:53:06.606Z,100873.34
2023-02-02T22:55:33.997Z,100867.38
2023-02-02T22:58:00.791Z,100880.81
2023-02-02T23:00:29.554Z,100884.31
2023-02-02T23:02:57.001Z,100890.50
2023-02-02T23:05:25.497Z,100894.03
2023-02-02T23:07:53.525Z,100899.53
2023-02-02T23:10:23.027Z,100904.09
2023-02-02T23:12:50.475Z,100913.22
2023-02-02T23:15:19.218Z,100924.94
2023-02-02T23:17:45.803Z,100924.38
2023-02-02T23:20:13.939Z,100935.31
2023-02-02T23:22:40.641Z,100937.25
2023-02-02T23:25:07.370Z,100941.81
2023-02-02T23:27:33.956Z,100950.41
2023-02-02T23:30:00.520Z,100950.97
2023-02-02T23:32:27.253Z,100948.94
2023-02-02T23:34:53.813Z,100944.25
2023-02-02T23:37:20.381Z,100940.81
2023-02-02T23:39:46.979Z,100937.16
2023-02-02T23:42:13.518Z,100951.66
2023-02-02T23:44:40.070Z,100958.41
2023-02-02T23:47:06.873Z,100941.59
2023-02-02T23:49:34.258Z,100963.00
2023-02-02T23:52:01.151Z,100958.06
2023-02-02T23:54:28.951Z,100961.81
2023-02-02T23:56:57.129Z,100970.50
2023-02-02T23:59:23.693Z,100971.66
